createdAt,value
2019-01-20T00:01:11.554Z,28.40
2019-01-20T00:03:40.061Z,28.85
2019-01-20T00:06:08.593Z,26.77
2019-01-20T00:08:37.179Z,26.77
2019-01-20T00:11:05.620Z,28.12
2019-01-20T00:13:34.105Z,28.90
2019-01-20T00:16:02.364Z,29.57
2019-01-20T00:18:30.883Z,30.92
2019-01-20T00:20:59.079Z,30.95
2019-01-20T00:23:27.461Z,29.70
2019-01-20T00:25:55.944Z,30.60
2019-01-20T00:28:24.107Z,29.72
2019-01-20T00:30:52.725Z,29.72
2019-01-20T00:33:20.873Z,28.17
2019-01-20T00:35:49.450Z,28.57
2019-01-20T00:38:18.109Z,29.75
2019-01-20T00:40:46.645Z,28.73
2019-01-20T00:43:15.138Z,29.05
2019-01-20T00:45:43.708Z,29.15
2019-01-20T00:48:12.155Z,26.90
2019-01-20T00:50:40.909Z,28.12
2019-01-20T00:53:09.181Z,28.27
2019-01-20T00:55:37.337Z,28.57
2019-01-20T00:58:05.528Z,28.60
2019-01-20T01:00:34.121Z,27.37
2019-01-20T01:03:02.555Z,27.62
2019-01-20T01:05:31.007Z,28.75
2019-01-20T01:07:59.621Z,28.62
2019-01-20T01:10:28.314Z,29.20
2019-01-20T01:12:58.006Z,27.85
2019-01-20T01:15:26.093Z,27.52
2019-01-20T01:17:54.516Z,27.95
2019-01-20T01:20:23.140Z,28.80
2019-01-20T01:22:51.309Z,28.10
2019-01-20T01:25:19.487Z,28.80
2019-01-20T01:27:47.610Z,28.70
2019-01-20T01:30:18.480Z,28.62
2019-01-20T01:32:46.912Z,28.90
2019-01-20T01:35:15.668Z,26.87
2019-01-20T01:37:44.229Z,27.02
2019-01-20T01:40:17.380Z,28.02
2019-01-20T01:42:45.966Z,28.32
2019-01-20T01:45:16.565Z,28.52
2019-01-20T01:47:44.727Z,28.00
2019-01-20T01:50:13.746Z,26.73
2019-01-20T01:52:41.929Z,27.85
2019-01-20T01:55:10.500Z,27.75
2019-01-20T01:57:39.018Z,26.87
2019-01-20T02:00:09.617Z,26.40
2019-01-20T02:02:38.057Z,27.25
2019-01-20T02:05:07.572Z,28.27
2019-01-20T02:07:35.673Z,26.12
2019-01-20T02:10:07.562Z,28.42
2019-01-20T02:12:36.331Z,27.27
2019-01-20T02:15:07.308Z,27.62
2019-01-20T02:17:35.499Z,28.47
2019-01-20T02:20:06.480Z,27.95
2019-01-20T02:22:34.948Z,28.20
2019-01-20T02:25:03.457Z,25.97
2019-01-20T02:27:31.901Z,28.25
2019-01-20T02:30:00.000Z,27.35
2019-01-20T02:32:28.481Z,27.30
2019-01-20T02:34:56.972Z,27.93
2019-01-20T02:37:25.668Z,27.42
2019-01-20T02:39:54.102Z,28.17
2019-01-20T02:42:22.555Z,27.93
2019-01-20T02:44:50.670Z,27.27
2019-01-20T02:47:18.775Z,27.58
2019-01-20T02:49:46.875Z,26.80
2019-01-20T02:52:14.976Z,27.00
2019-01-20T02:54:43.067Z,27.48
2019-01-20T02:57:11.159Z,29.07
2019-01-20T02:59:39.593Z,26.97
2019-01-20T03:02:08.369Z,27.80
2019-01-20T03:04:36.792Z,27.50
2019-01-20T03:07:05.235Z,27.65
2019-01-20T03:09:33.657Z,27.62
2019-01-20T03:12:03.679Z,30.43
2019-01-20T03:14:31.972Z,27.42
2019-01-20T03:17:00.089Z,29.50
2019-01-20T03:19:28.685Z,31.97
2019-01-20T03:21:56.806Z,30.35
2019-01-20T03:24:24.900Z,31.52
2019-01-20T03:26:53.011Z,32.28
2019-01-20T03:29:21.449Z,31.00
2019-01-20T03:31:49.917Z,31.60
2019-01-20T03:34:18.334Z,30.27
2019-01-20T03:36:46.756Z,29.37
2019-01-20T03:39:15.208Z,29.42
2019-01-20T03:41:43.301Z,30.48
2019-01-20T03:44:11.740Z,30.88
2019-01-20T03:46:40.169Z,31.10
2019-01-20T03:49:08.677Z,30.27
2019-01-20T03:51:36.771Z,30.82
2019-01-20T03:54:04.948Z,32.10
2019-01-20T03:56:33.120Z,31.37
2019-01-20T03:59:01.213Z,35.20
2019-01-20T04:01:29.710Z,33.23
2019-01-20T04:03:58.151Z,33.13
2019-01-20T04:06:26.650Z,33.65
2019-01-20T04:08:55.818Z,31.60
2019-01-20T04:11:24.245Z,31.23
2019-01-20T04:13:52.683Z,34.33
2019-01-20T04:16:20.784Z,32.40
2019-01-20T04:18:49.261Z,32.40
2019-01-20T04:21:17.357Z,32.58
2019-01-20T04:23:45.466Z,33.02
2019-01-20T04:26:13.552Z,33.88
2019-01-20T04:28:41.770Z,31.45
2019-01-20T04:31:10.199Z,32.80
2019-01-20T04:33:38.640Z,34.15
2019-01-20T04:36:06.737Z,34.20
2019-01-20T04:38:35.169Z,32.38
2019-01-20T04:41:03.595Z,32.13
2019-01-20T04:43:32.029Z,32.40
2019-01-20T04:46:00.116Z,31.55
2019-01-20T04:48:28.560Z,31.30
2019-01-20T04:50:57.013Z,31.62
2019-01-20T04:53:25.788Z,32.53
2019-01-20T04:55:54.205Z,30.27
2019-01-20T04:58:24.070Z,30.72
2019-01-20T05:00:52.605Z,31.90
2019-01-20T05:03:21.061Z,34.55
2019-01-20T05:05:49.481Z,30.52
2019-01-20T05:08:17.929Z,33.73
2019-01-20T05:10:46.357Z,32.88
2019-01-20T05:13:14.808Z,32.63
2019-01-20T05:15:42.895Z,32.65
2019-01-20T05:18:10.998Z,32.17
2019-01-20T05:20:39.200Z,33.00
2019-01-20T05:23:07.371Z,31.48
2019-01-20T05:25:35.475Z,30.55
2019-01-20T05:28:03.566Z,28.80
2019-01-20T05:30:32.077Z,31.15
2019-01-20T05:33:00.184Z,29.87
2019-01-20T05:35:28.610Z,31.25
2019-01-20T05:37:57.141Z,30.55
2019-01-20T05:40:25.573Z,32.35
2019-01-20T05:42:54.000Z,31.93
2019-01-20T05:45:24.242Z,31.27
2019-01-20T05:47:52.677Z,30.57
2019-01-20T05:50:20.860Z,29.85
2019-01-20T05:52:48.969Z,31.75
2019-01-20T05:55:17.160Z,31.50
2019-01-20T05:57:45.264Z,31.68
2019-01-20T06:00:22.402Z,31.62
2019-01-20T06:02:50.836Z,31.35
2019-01-20T06:05:19.356Z,30.88
2019-01-20T06:07:47.439Z,29.87
2019-01-20T06:10:16.013Z,29.72
2019-01-20T06:12:44.504Z,29.07
2019-01-20T06:15:14.194Z,28.52
2019-01-20T06:17:42.639Z,30.12
2019-01-20T06:20:10.812Z,30.48
2019-01-20T06:22:39.313Z,29.95
2019-01-20T06:25:08.094Z,28.52
2019-01-20T06:27:36.841Z,28.67
2019-01-20T06:30:14.149Z,27.87
2019-01-20T06:32:42.585Z,27.80
2019-01-20T06:35:11.077Z,28.62
2019-01-20T06:37:39.576Z,29.05
2019-01-20T06:40:08.670Z,26.80
2019-01-20T06:42:37.170Z,29.77
2019-01-20T06:45:08.839Z,28.55
2019-01-20T06:47:36.935Z,28.15
2019-01-20T06:50:06.568Z,29.27
2019-01-20T06:52:34.995Z,27.40
2019-01-20T06:55:03.510Z,29.55
2019-01-20T06:57:31.599Z,28.35
2019-01-20T07:00:00.024Z,28.92
2019-01-20T07:02:28.693Z,28.73
2019-01-20T07:04:57.140Z,27.48
2019-01-20T07:07:25.252Z,27.85
2019-01-20T07:09:53.694Z,29.12
2019-01-20T07:12:21.795Z,27.90
2019-01-20T07:14:50.213Z,27.93
2019-01-20T07:17:18.648Z,29.72
2019-01-20T07:19:46.743Z,27.98
2019-01-20T07:22:14.839Z,29.55
2019-01-20T07:24:42.934Z,28.20
2019-01-20T07:27:11.024Z,28.02
2019-01-20T07:29:39.472Z,27.90
2019-01-20T07:32:07.620Z,26.87
2019-01-20T07:34:35.730Z,28.50
2019-01-20T07:37:04.226Z,27.65
2019-01-20T07:39:32.685Z,28.05
2019-01-20T07:42:01.352Z,28.25
2019-01-20T07:44:29.485Z,26.42
2019-01-20T07:46:57.916Z,29.02
2019-01-20T07:49:26.623Z,28.00
2019-01-20T07:51:54.724Z,28.50
2019-01-20T07:54:23.147Z,26.40
2019-01-20T07:56:51.257Z,27.30
2019-01-20T07:59:19.677Z,28.12
2019-01-20T08:01:48.123Z,27.42
2019-01-20T08:04:16.229Z,27.58
2019-01-20T08:06:44.693Z,27.70
2019-01-20T08:09:13.114Z,28.83
2019-01-20T08:11:41.819Z,28.55
2019-01-20T08:14:10.246Z,28.15
2019-01-20T08:16:38.698Z,28.95
2019-01-20T08:19:07.133Z,27.52
2019-01-20T08:21:35.237Z,29.27
2019-01-20T08:24:03.326Z,29.98
2019-01-20T08:26:31.812Z,29.15
2019-01-20T08:29:00.279Z,31.00
2019-01-20T08:31:28.831Z,30.90
2019-01-20T08:33:57.385Z,28.73
2019-01-20T08:36:26.396Z,31.12
2019-01-20T08:38:54.942Z,28.98
2019-01-20T08:41:23.445Z,30.17
2019-01-20T08:43:51.940Z,30.97
2019-01-20T08:46:26.221Z,31.60
2019-01-20T08:48:54.644Z,29.57
2019-01-20T08:51:23.098Z,31.70
2019-01-20T08:53:51.341Z,30.52
2019-01-20T08:56:19.809Z,32.67
2019-01-20T08:58:47.957Z,30.68
2019-01-20T09:01:17.336Z,31.62
2019-01-20T09:03:45.776Z,31.07
2019-01-20T09:06:14.217Z,34.75
2019-01-20T09:08:42.869Z,37.78
2019-01-20T09:11:11.306Z,31.20
2019-01-20T09:13:40.209Z,29.35
2019-01-20T09:16:08.355Z,28.17
2019-01-20T09:18:36.867Z,29.87
2019-01-20T09:21:04.963Z,33.88
2019-01-20T09:23:33.072Z,29.98
2019-01-20T09:26:01.204Z,30.65
2019-01-20T09:28:29.312Z,29.72
2019-01-20T09:30:57.737Z,30.68
2019-01-20T09:33:26.181Z,28.67
2019-01-20T09:35:54.335Z,29.92
2019-01-20T09:38:22.765Z,30.17
2019-01-20T09:40:51.295Z,29.43
2019-01-20T09:43:19.764Z,28.65
2019-01-20T09:45:48.883Z,29.10
2019-01-20T09:48:16.979Z,29.82
2019-01-20T09:50:45.133Z,28.07
2019-01-20T09:53:13.240Z,27.67
2019-01-20T09:55:41.347Z,28.75
2019-01-20T09:58:09.456Z,27.58
2019-01-20T10:00:38.146Z,28.15
2019-01-20T10:03:06.292Z,27.13
2019-01-20T10:05:34.764Z,28.02
2019-01-20T10:08:03.202Z,26.93
2019-01-20T10:10:31.303Z,26.87
2019-01-20T10:12:59.757Z,26.95
2019-01-20T10:15:28.465Z,27.35
2019-01-20T10:17:56.900Z,27.07
2019-01-20T10:20:29.185Z,26.27
2019-01-20T10:22:57.311Z,25.30
2019-01-20T10:25:25.406Z,24.55
2019-01-20T10:27:53.517Z,25.15
2019-01-20T10:30:29.869Z,24.10
2019-01-20T10:32:58.337Z,25.07
2019-01-20T10:35:28.761Z,29.63
2019-01-20T10:37:58.832Z,26.25
2019-01-20T10:40:27.294Z,26.30
2019-01-20T10:42:55.789Z,25.68
2019-01-20T10:45:24.218Z,25.08
2019-01-20T10:47:52.734Z,26.45
2019-01-20T10:50:21.132Z,26.57
2019-01-20T10:52:49.648Z,26.00
2019-01-20T10:55:18.156Z,27.50
2019-01-20T10:57:46.600Z,25.07
2019-01-20T11:00:23.905Z,26.37
2019-01-20T11:02:52.413Z,26.47
2019-01-20T11:05:24.601Z,26.00
2019-01-20T11:07:50.865Z,28.93
2019-01-20T11:10:18.994Z,30.70
2019-01-20T11:12:47.435Z,30.30
2019-01-20T11:15:16.142Z,31.13
2019-01-20T11:17:44.357Z,29.43
2019-01-20T11:20:15.486Z,32.97
2019-01-20T11:22:44.024Z,32.00
2019-01-20T11:25:13.654Z,30.33
2019-01-20T11:27:42.081Z,30.77
2019-01-20T11:30:12.645Z,32.10
2019-01-20T11:32:42.509Z,30.83
2019-01-20T11:35:16.561Z,30.67
2019-01-20T11:37:45.000Z,31.50
2019-01-20T11:40:14.697Z,30.70
2019-01-20T11:42:43.315Z,31.00
2019-01-20T11:45:15.382Z,30.40
2019-01-20T11:47:43.821Z,31.17
2019-01-20T11:50:12.653Z,31.30
2019-01-20T11:52:41.161Z,29.07
2019-01-20T11:55:10.932Z,29.73
2019-01-20T11:57:40.218Z,29.30
2019-01-20T12:00:10.085Z,29.37
2019-01-20T12:02:38.595Z,32.17
2019-01-20T12:05:09.933Z,28.47
2019-01-20T12:07:38.349Z,29.97
2019-01-20T12:10:09.326Z,29.27
2019-01-20T12:12:38.353Z,30.37
2019-01-20T12:15:08.756Z,28.97
2019-01-20T12:17:36.889Z,29.97
2019-01-20T12:20:06.563Z,31.10
2019-01-20T12:22:34.984Z,29.57
2019-01-20T12:25:04.244Z,29.03
2019-01-20T12:27:32.654Z,31.53
2019-01-20T12:30:00.757Z,30.60
2019-01-20T12:32:29.214Z,31.13
2019-01-20T12:34:57.660Z,30.37
2019-01-20T12:37:26.077Z,30.97
2019-01-20T12:39:54.509Z,32.23
2019-01-20T12:42:22.631Z,30.27
2019-01-20T12:44:50.769Z,30.70
2019-01-20T12:47:18.857Z,30.77
2019-01-20T12:49:46.959Z,31.20
2019-01-20T12:52:15.046Z,31.17
2019-01-20T12:54:43.152Z,30.90
2019-01-20T12:57:11.514Z,33.07
2019-01-20T12:59:39.938Z,32.53
2019-01-20T13:02:08.404Z,32.50
2019-01-20T13:04:37.107Z,33.37
2019-01-20T13:07:05.661Z,34.07
2019-01-20T13:09:34.337Z,35.83
2019-01-20T13:12:02.448Z,34.05
2019-01-20T13:14:30.890Z,34.90
2019-01-20T13:16:58.991Z,34.43
2019-01-20T13:19:27.095Z,34.80
2019-01-20T13:21:55.185Z,34.15
2019-01-20T13:24:23.310Z,34.35
2019-01-20T13:26:51.401Z,34.58
2019-01-20T13:29:19.843Z,34.78
2019-01-20T13:31:48.264Z,34.85
2019-01-20T13:34:16.953Z,35.20
2019-01-20T13:36:45.385Z,36.60
2019-01-20T13:39:13.825Z,35.38
2019-01-20T13:41:42.269Z,37.17
2019-01-20T13:44:10.756Z,33.95
2019-01-20T13:46:38.922Z,33.55
2019-01-20T13:49:07.349Z,32.78
2019-01-20T13:51:35.797Z,38.65
2019-01-20T13:54:04.442Z,34.23
2019-01-20T13:56:32.883Z,32.70
2019-01-20T13:59:01.588Z,33.13
2019-01-20T14:01:30.257Z,32.53
2019-01-20T14:03:58.708Z,32.50
2019-01-20T14:06:27.128Z,34.23
2019-01-20T14:08:55.561Z,33.83
2019-01-20T14:11:23.982Z,30.45
2019-01-20T14:13:52.421Z,33.00
2019-01-20T14:16:20.937Z,34.75
2019-01-20T14:18:49.059Z,33.83
2019-01-20T14:21:17.159Z,32.38
2019-01-20T14:23:45.244Z,35.20
2019-01-20T14:26:13.365Z,33.60
2019-01-20T14:28:41.707Z,33.05
2019-01-20T14:31:10.214Z,33.78
2019-01-20T14:33:38.309Z,32.65
2019-01-20T14:36:06.808Z,34.73
2019-01-20T14:38:35.249Z,35.55
2019-01-20T14:41:03.749Z,32.83
2019-01-20T14:43:32.181Z,33.35
2019-01-20T14:46:00.634Z,32.13
2019-01-20T14:48:28.737Z,33.60
2019-01-20T14:50:56.848Z,33.02
2019-01-20T14:53:24.953Z,31.37
2019-01-20T14:55:53.051Z,30.72
2019-01-20T14:58:21.476Z,31.05
2019-01-20T15:00:49.931Z,31.57
2019-01-20T15:03:18.358Z,33.42
2019-01-20T15:05:46.879Z,32.83
2019-01-20T15:08:15.307Z,32.05
2019-01-20T15:10:43.741Z,33.08
2019-01-20T15:13:12.424Z,35.83
2019-01-20T15:15:41.295Z,34.03
2019-01-20T15:18:10.105Z,33.85
2019-01-20T15:20:38.809Z,31.90
2019-01-20T15:23:06.984Z,30.97
2019-01-20T15:25:35.107Z,29.15
2019-01-20T15:28:03.282Z,29.37
2019-01-20T15:30:35.416Z,27.70
2019-01-20T15:33:05.402Z,21.02
2019-01-20T15:35:34.025Z,19.35
2019-01-20T15:38:02.466Z,18.60
2019-01-20T15:40:31.226Z,17.25
2019-01-20T15:43:00.309Z,19.05
2019-01-20T15:45:29.293Z,22.55
2019-01-20T15:47:57.733Z,19.82
2019-01-20T15:50:28.329Z,20.05
2019-01-20T15:52:57.044Z,19.73
2019-01-20T15:55:25.221Z,21.97
2019-01-20T15:57:53.345Z,21.30
2019-01-20T16:00:32.363Z,20.37
2019-01-20T16:03:00.539Z,18.40
2019-01-20T16:05:28.838Z,18.37
2019-01-20T16:07:57.434Z,17.40
2019-01-20T16:10:26.166Z,18.00
2019-01-20T16:12:54.673Z,18.62
2019-01-20T16:15:26.609Z,22.90
2019-01-20T16:17:55.032Z,24.15
2019-01-20T16:20:23.425Z,31.55
2019-01-20T16:22:52.019Z,31.95
2019-01-20T16:25:29.219Z,34.60
2019-01-20T16:27:57.284Z,37.17
2019-01-20T16:30:28.426Z,39.45
2019-01-20T16:32:56.729Z,37.20
2019-01-20T16:35:26.021Z,40.28
2019-01-20T16:37:55.425Z,41.75
2019-01-20T16:40:25.411Z,43.87
2019-01-20T16:42:53.845Z,42.48
2019-01-20T16:45:32.890Z,45.55
2019-01-20T16:47:58.256Z,46.25
2019-01-20T16:50:26.773Z,41.65
2019-01-20T16:52:55.297Z,45.98
2019-01-20T16:55:23.397Z,45.52
2019-01-20T16:57:51.569Z,46.08
2019-01-20T17:00:21.045Z,45.10
2019-01-20T17:02:49.222Z,43.08
2019-01-20T17:05:17.824Z,39.18
2019-01-20T17:07:46.294Z,40.28
2019-01-20T17:10:19.725Z,37.63
2019-01-20T17:12:48.325Z,40.58
2019-01-20T17:15:19.261Z,38.45
2019-01-20T17:17:47.696Z,42.17
2019-01-20T17:20:17.068Z,36.45
2019-01-20T17:22:46.163Z,35.88
2019-01-20T17:25:17.143Z,37.23
2019-01-20T17:27:45.561Z,37.85
2019-01-20T17:30:20.136Z,38.95
2019-01-20T17:32:48.663Z,38.98
2019-01-20T17:35:17.417Z,36.60
2019-01-20T17:37:46.125Z,37.05
2019-01-20T17:40:17.543Z,46.68
2019-01-20T17:42:46.034Z,38.78
2019-01-20T17:45:18.332Z,38.50
2019-01-20T17:47:47.002Z,38.90
2019-01-20T17:50:16.648Z,38.58
2019-01-20T17:52:45.206Z,42.70
2019-01-20T17:55:13.312Z,41.13
2019-01-20T17:57:41.404Z,36.93
2019-01-20T18:00:14.373Z,37.23
2019-01-20T18:02:42.980Z,37.80
2019-01-20T18:05:14.064Z,37.08
2019-01-20T18:07:42.517Z,38.75
2019-01-20T18:10:11.713Z,38.42
2019-01-20T18:12:40.169Z,38.33
2019-01-20T18:15:11.745Z,39.23
2019-01-20T18:17:40.640Z,35.78
2019-01-20T18:20:12.141Z,37.65
2019-01-20T18:22:40.813Z,37.15
2019-01-20T18:25:10.595Z,35.68
2019-01-20T18:27:39.039Z,40.12
2019-01-20T18:30:10.773Z,38.90
2019-01-20T18:32:39.213Z,38.78
2019-01-20T18:35:14.278Z,50.28
2019-01-20T18:37:43.025Z,34.15
2019-01-20T18:40:16.829Z,35.10
2019-01-20T18:42:45.020Z,40.60
2019-01-20T18:45:14.280Z,39.05
2019-01-20T18:47:42.739Z,36.48
2019-01-20T18:50:22.813Z,38.05
2019-01-20T18:52:51.105Z,36.83
2019-01-20T18:55:19.956Z,36.70
2019-01-20T18:57:48.450Z,38.28
2019-01-20T19:00:30.645Z,39.67
2019-01-20T19:02:59.129Z,37.42
2019-01-20T19:05:27.546Z,39.85
2019-01-20T19:07:55.994Z,40.50
2019-01-20T19:10:24.103Z,38.10
2019-01-20T19:12:52.609Z,38.17
2019-01-20T19:15:21.379Z,39.58
2019-01-20T19:17:49.487Z,38.15
2019-01-20T19:20:21.564Z,39.80
2019-01-20T19:22:51.428Z,39.35
2019-01-20T19:25:20.224Z,40.25
2019-01-20T19:27:48.734Z,39.95
2019-01-20T19:30:19.984Z,38.15
2019-01-20T19:32:48.412Z,37.85
2019-01-20T19:35:17.155Z,40.70
2019-01-20T19:37:45.960Z,39.00
2019-01-20T19:40:14.427Z,38.67
2019-01-20T19:42:42.932Z,41.05
2019-01-20T19:45:14.046Z,38.63
2019-01-20T19:47:42.493Z,40.15
2019-01-20T19:50:13.057Z,37.03
2019-01-20T19:52:41.299Z,37.65
2019-01-20T19:55:10.968Z,37.83
2019-01-20T19:57:39.459Z,43.00
2019-01-20T20:00:19.774Z,40.78
2019-01-20T20:02:48.284Z,39.85
2019-01-20T20:05:18.901Z,40.35
2019-01-20T20:07:47.681Z,39.92
2019-01-20T20:10:24.244Z,42.30
2019-01-20T20:12:54.747Z,40.33
2019-01-20T20:15:23.902Z,40.60
2019-01-20T20:17:52.504Z,39.98
2019-01-20T20:20:21.817Z,39.58
2019-01-20T20:22:50.413Z,40.15
2019-01-20T20:25:20.605Z,39.00
2019-01-20T20:27:49.375Z,40.38
2019-01-20T20:30:20.885Z,37.90
2019-01-20T20:32:49.320Z,38.28
2019-01-20T20:35:17.884Z,39.20
2019-01-20T20:37:46.178Z,40.17
2019-01-20T20:40:15.489Z,38.00
2019-01-20T20:42:43.953Z,39.48
2019-01-20T20:45:15.627Z,38.90
2019-01-20T20:47:44.121Z,48.85
2019-01-20T20:50:14.489Z,42.95
2019-01-20T20:52:46.116Z,38.70
2019-01-20T20:55:12.477Z,38.73
2019-01-20T20:57:41.203Z,40.45
2019-01-20T21:00:15.462Z,40.33
2019-01-20T21:02:43.900Z,38.67
2019-01-20T21:05:12.336Z,38.78
2019-01-20T21:07:40.424Z,40.60
2019-01-20T21:10:10.551Z,41.75
2019-01-20T21:12:38.998Z,40.73
2019-01-20T21:15:10.312Z,38.90
2019-01-20T21:17:38.793Z,38.13
2019-01-20T21:20:08.421Z,42.65
2019-01-20T21:22:36.844Z,39.85
2019-01-20T21:25:06.787Z,40.10
2019-01-20T21:27:35.232Z,42.25
2019-01-20T21:30:05.613Z,42.27
2019-01-20T21:32:34.054Z,42.10
2019-01-20T21:35:02.409Z,41.63
2019-01-20T21:37:30.866Z,39.73
2019-01-20T21:39:59.363Z,40.63
2019-01-20T21:42:27.881Z,42.53
2019-01-20T21:44:56.388Z,42.20
2019-01-20T21:47:24.829Z,43.55
2019-01-20T21:49:53.194Z,43.20
2019-01-20T21:52:21.529Z,42.05
2019-01-20T21:54:49.977Z,40.48
2019-01-20T21:57:18.470Z,43.25
2019-01-20T21:59:46.933Z,42.48
2019-01-20T22:02:15.365Z,43.95
2019-01-20T22:04:43.812Z,40.80
2019-01-20T22:07:12.242Z,40.73
2019-01-20T22:09:40.677Z,41.25
2019-01-20T22:12:08.785Z,44.58
2019-01-20T22:14:36.889Z,44.85
2019-01-20T22:17:05.047Z,41.28
2019-01-20T22:19:33.487Z,44.08
2019-01-20T22:22:01.578Z,42.48
2019-01-20T22:24:30.011Z,42.08
2019-01-20T22:26:58.520Z,40.00
2019-01-20T22:29:26.972Z,42.23
2019-01-20T22:31:55.298Z,45.50
2019-01-20T22:34:23.733Z,41.75
2019-01-20T22:36:52.156Z,42.40
2019-01-20T22:39:20.607Z,44.10
2019-01-20T22:41:49.120Z,43.75
2019-01-20T22:44:17.560Z,41.55
2019-01-20T22:46:45.679Z,42.65
2019-01-20T22:49:14.169Z,42.65
2019-01-20T22:51:42.607Z,42.83
2019-01-20T22:54:11.044Z,41.98
2019-01-20T22:56:39.172Z,41.28
2019-01-20T22:59:07.273Z,43.25
2019-01-20T23:01:35.720Z,42.73
2019-01-20T23:04:04.077Z,41.98
2019-01-20T23:06:32.601Z,42.80
2019-01-20T23:09:06.512Z,41.80
2019-01-20T23:11:30.845Z,41.05
2019-01-20T23:13:59.362Z,40.83
2019-01-20T23:16:27.794Z,41.08
2019-01-20T23:18:56.236Z,41.65
2019-01-20T23:21:24.790Z,40.73
2019-01-20T23:23:53.209Z,42.27
2019-01-20T23:26:21.319Z,41.50
2019-01-20T23:28:49.477Z,43.68
2019-01-20T23:31:17.953Z,42.48
2019-01-20T23:33:46.111Z,42.40
2019-01-20T23:36:14.563Z,42.17
2019-01-20T23:38:43.050Z,41.73
2019-01-20T23:41:11.537Z,42.43
2019-01-20T23:43:40.139Z,43.08
2019-01-20T23:46:08.239Z,42.78
2019-01-20T23:48:36.669Z,42.67
2019-01-20T23:51:04.862Z,40.97
2019-01-20T23:53:33.069Z,40.52
2019-01-20T23:56:01.180Z,43.83
2019-01-20T23:58:29.293Z,42.83
